createdAt,value
2022-10-04T00:01:14.359Z,4.60
2022-10-04T00:03:45.739Z,4.78
2022-10-04T00:06:15.247Z,5.20
2022-10-04T00:08:42.337Z,4.93
2022-10-04T00:11:15.608Z,4.88
2022-10-04T00:13:47.484Z,4.90
2022-10-04T00:16:21.686Z,4.55
2022-10-04T00:18:48.867Z,5.28
2022-10-04T00:21:16.230Z,4.50
2022-10-04T00:23:45.670Z,4.53
2022-10-04T00:26:15.964Z,4.95
2022-10-04T00:28:45.265Z,4.90
2022-10-04T00:31:25.926Z,4.78
2022-10-04T00:33:59.440Z,5.25
2022-10-04T00:36:26.625Z,4.95
2022-10-04T00:39:06.095Z,5.05
2022-10-04T00:41:42.063Z,4.55
2022-10-04T00:44:15.210Z,4.35
2022-10-04T00:46:44.136Z,4.68
2022-10-04T00:49:12.928Z,4.18
2022-10-04T00:51:43.357Z,4.45
2022-10-04T00:54:17.506Z,4.22
2022-10-04T00:56:51.706Z,4.03
2022-10-04T00:59:34.268Z,4.30
2022-10-04T01:02:07.394Z,4.43
2022-10-04T01:04:38.155Z,4.13
2022-10-04T01:07:05.955Z,4.70
2022-10-04T01:09:39.329Z,4.13
2022-10-04T01:12:11.057Z,3.95
2022-10-04T01:14:54.178Z,4.15
2022-10-04T01:17:21.446Z,3.95
2022-10-04T01:19:51.230Z,4.15
2022-10-04T01:22:33.654Z,4.45
2022-10-04T01:25:00.837Z,4.53
2022-10-04T01:27:39.997Z,3.75
2022-10-04T01:30:11.856Z,3.90
2022-10-04T01:32:39.820Z,3.88
2022-10-04T01:35:10.987Z,3.92
2022-10-04T01:37:39.398Z,3.90
2022-10-04T01:40:08.839Z,3.50
2022-10-04T01:42:44.616Z,3.40
2022-10-04T01:45:24.831Z,4.10
2022-10-04T01:48:00.897Z,3.40
2022-10-04T01:50:34.721Z,3.78
2022-10-04T01:53:10.939Z,4.25
2022-10-04T01:55:38.348Z,3.58
2022-10-04T01:58:11.342Z,3.67
2022-10-04T02:00:41.024Z,3.55
2022-10-04T02:03:18.227Z,3.50
2022-10-04T02:05:50.537Z,3.50
2022-10-04T02:08:18.746Z,2.97
2022-10-04T02:10:46.198Z,4.47
2022-10-04T02:13:18.545Z,3.15
2022-10-04T02:15:46.727Z,3.45
2022-10-04T02:18:14.793Z,3.45
2022-10-04T02:20:42.872Z,3.22
2022-10-04T02:23:11.431Z,3.67
2022-10-04T02:25:38.894Z,3.42
2022-10-04T02:28:11.036Z,3.28
2022-10-04T02:31:15.622Z,3.40
2022-10-04T02:33:44.038Z,2.90
2022-10-04T02:36:11.829Z,3.33
2022-10-04T02:38:42.390Z,3.08
2022-10-04T02:41:13.428Z,3.03
2022-10-04T02:43:44.139Z,3.05
2022-10-04T02:46:14.050Z,3.05
2022-10-04T02:48:47.276Z,3.58
2022-10-04T02:51:34.612Z,3.47
2022-10-04T02:54:04.588Z,2.58
2022-10-04T02:56:32.837Z,2.95
2022-10-04T02:59:06.823Z,3.35
2022-10-04T03:01:42.165Z,2.83
2022-10-04T03:04:12.062Z,3.10
2022-10-04T03:06:39.419Z,3.00
2022-10-04T03:09:06.783Z,2.67
2022-10-04T03:11:38.333Z,2.85
2022-10-04T03:14:07.250Z,2.90
2022-10-04T03:16:45.301Z,3.00
2022-10-04T03:19:13.504Z,3.00
2022-10-04T03:21:41.305Z,2.67
2022-10-04T03:24:11.005Z,2.50
2022-10-04T03:26:41.743Z,2.95
2022-10-04T03:29:10.436Z,2.70
2022-10-04T03:31:47.092Z,2.83
2022-10-04T03:34:15.966Z,2.60
2022-10-04T03:36:44.035Z,2.90
2022-10-04T03:39:12.291Z,2.83
2022-10-04T03:41:40.774Z,2.35
2022-10-04T03:44:13.825Z,2.65
2022-10-04T03:46:41.202Z,2.38
2022-10-04T03:49:08.765Z,2.58
2022-10-04T03:51:35.968Z,2.53
2022-10-04T03:54:03.323Z,2.53
2022-10-04T03:56:32.223Z,2.80
2022-10-04T03:58:59.565Z,2.40
2022-10-04T04:01:46.652Z,2.63
2022-10-04T04:04:31.574Z,2.70
2022-10-04T04:07:01.655Z,2.60
2022-10-04T04:09:41.087Z,2.63
2022-10-04T04:12:11.977Z,3.15
2022-10-04T04:14:40.535Z,2.30
2022-10-04T04:17:26.271Z,2.50
2022-10-04T04:20:04.751Z,2.78
2022-10-04T04:22:34.510Z,2.95
2022-10-04T04:25:02.442Z,3.13
2022-10-04T04:27:30.680Z,2.55
2022-10-04T04:29:59.919Z,2.65
2022-10-04T04:32:32.342Z,3.55
2022-10-04T04:35:06.828Z,2.67
2022-10-04T04:37:35.249Z,3.65
2022-10-04T04:40:12.714Z,2.47
2022-10-04T04:42:39.827Z,3.10
2022-10-04T04:45:14.291Z,3.17
2022-10-04T04:47:46.872Z,3.17
2022-10-04T04:50:13.948Z,3.00
2022-10-04T04:52:41.576Z,3.85
2022-10-04T04:55:16.462Z,3.78
2022-10-04T04:57:45.002Z,3.45
2022-10-04T05:00:18.234Z,4.40
2022-10-04T05:02:58.620Z,4.07
2022-10-04T05:05:27.998Z,3.65
2022-10-04T05:08:10.049Z,4.05
2022-10-04T05:10:37.633Z,3.50
2022-10-04T05:13:07.807Z,3.53
2022-10-04T05:15:39.732Z,3.85
2022-10-04T05:18:17.661Z,4.10
2022-10-04T05:20:48.741Z,4.00
2022-10-04T05:23:15.860Z,3.85
2022-10-04T05:25:43.319Z,3.75
2022-10-04T05:28:11.820Z,3.70
2022-10-04T05:30:58.158Z,3.40
2022-10-04T05:33:30.621Z,3.15
2022-10-04T05:36:00.301Z,2.95
2022-10-04T05:38:47.650Z,3.72
2022-10-04T05:41:21.034Z,3.65
2022-10-04T05:43:51.449Z,5.03
2022-10-04T05:46:18.990Z,4.40
2022-10-04T05:48:46.913Z,4.13
2022-10-04T05:51:24.679Z,4.15
2022-10-04T05:53:51.960Z,3.85
2022-10-04T05:56:22.039Z,4.03
2022-10-04T05:59:06.343Z,4.40
2022-10-04T06:01:33.499Z,4.68
2022-10-04T06:04:00.711Z,4.15
2022-10-04T06:06:32.840Z,5.25
2022-10-04T06:09:14.769Z,4.68
2022-10-04T06:11:48.015Z,3.90
2022-10-04T06:17:23.752Z,4.05
2022-10-04T06:20:06.247Z,4.15
2022-10-04T06:22:33.559Z,4.35
2022-10-04T06:25:09.323Z,4.07
2022-10-04T06:27:56.034Z,4.50
2022-10-04T06:30:23.203Z,4.35
2022-10-04T06:32:58.479Z,4.55
2022-10-04T06:35:31.439Z,3.75
2022-10-04T06:37:58.517Z,4.40
2022-10-04T06:40:28.738Z,4.28
2022-10-04T06:42:55.847Z,3.97
2022-10-04T06:45:50.467Z,4.32
2022-10-04T06:48:35.175Z,4.43
2022-10-04T06:51:02.246Z,4.18
2022-10-04T06:53:55.854Z,3.63
2022-10-04T06:56:29.146Z,4.13
2022-10-04T06:58:56.257Z,4.15
2022-10-04T07:01:30.837Z,4.60
2022-10-04T07:04:02.554Z,4.85
2022-10-04T07:06:52.988Z,4.55
2022-10-04T07:09:22.685Z,4.00
2022-10-04T07:12:04.088Z,4.72
2022-10-04T07:14:38.964Z,4.20
2022-10-04T07:17:12.317Z,3.97
2022-10-04T07:19:44.812Z,4.10
2022-10-04T07:22:22.291Z,4.22
2022-10-04T07:24:55.864Z,4.47
2022-10-04T07:27:33.025Z,4.00
2022-10-04T07:30:02.917Z,3.78
2022-10-04T07:32:36.121Z,4.07
2022-10-04T07:35:09.732Z,4.10
2022-10-04T07:38:06.027Z,3.60
2022-10-04T07:40:39.462Z,3.90
2022-10-04T07:43:08.463Z,3.58
2022-10-04T07:45:39.834Z,4.07
2022-10-04T07:48:09.967Z,3.60
2022-10-04T07:50:41.995Z,3.30
2022-10-04T07:53:13.209Z,3.88
2022-10-04T07:55:40.365Z,3.55
2022-10-04T07:58:14.095Z,3.65
2022-10-04T08:00:49.542Z,3.85
2022-10-04T08:03:27.227Z,3.53
2022-10-04T08:06:13.239Z,3.67
2022-10-04T08:08:49.481Z,3.50
2022-10-04T08:11:28.178Z,3.20
2022-10-04T08:13:55.271Z,3.30
2022-10-04T08:16:31.181Z,3.10
2022-10-04T08:19:17.648Z,3.80
2022-10-04T08:22:06.240Z,3.30
2022-10-04T08:24:37.397Z,2.83
2022-10-04T08:27:04.559Z,2.80
2022-10-04T08:29:43.707Z,3.35
2022-10-04T08:32:14.234Z,4.07
2022-10-04T08:34:43.250Z,3.13
2022-10-04T08:37:28.844Z,3.10
2022-10-04T08:39:55.960Z,3.63
2022-10-04T08:42:26.454Z,3.17
2022-10-04T08:45:16.976Z,3.38
2022-10-04T08:47:50.247Z,3.13
2022-10-04T08:50:26.571Z,2.97
2022-10-04T08:53:10.783Z,3.78
2022-10-04T08:55:58.513Z,3.00
2022-10-04T08:58:35.867Z,3.20
2022-10-04T09:01:02.946Z,2.72
2022-10-04T09:03:48.860Z,3.40
2022-10-04T09:06:22.192Z,2.53
2022-10-04T09:08:58.227Z,2.40
2022-10-04T09:11:45.872Z,2.85
2022-10-04T09:14:29.145Z,2.40
2022-10-04T09:17:01.907Z,2.70
2022-10-04T09:19:47.778Z,3.03
2022-10-04T09:22:44.173Z,2.38
2022-10-04T09:25:22.593Z,2.10
2022-10-04T09:27:58.033Z,2.15
2022-10-04T09:30:45.429Z,1.83
2022-10-04T09:33:31.049Z,2.05
2022-10-04T09:36:07.340Z,2.50
2022-10-04T09:39:11.462Z,2.15
2022-10-04T09:41:40.164Z,2.15
2022-10-04T09:44:22.484Z,2.22
2022-10-04T09:47:04.893Z,2.08
2022-10-04T09:49:37.780Z,1.85
2022-10-04T09:52:13.065Z,2.55
2022-10-04T09:55:04.994Z,1.88
2022-10-04T09:57:51.086Z,2.15
2022-10-04T10:00:24.747Z,2.50
2022-10-04T10:03:15.573Z,2.40
2022-10-04T10:06:03.273Z,1.80
2022-10-04T10:08:51.705Z,2.08
2022-10-04T10:11:37.276Z,1.80
2022-10-04T10:14:07.364Z,1.88
2022-10-04T10:16:34.488Z,1.95
2022-10-04T10:19:01.596Z,2.03
2022-10-04T10:21:47.320Z,2.10
2022-10-04T10:24:20.501Z,1.88
2022-10-04T10:27:10.917Z,2.00
2022-10-04T10:29:53.007Z,2.00
2022-10-04T10:32:35.199Z,2.42
2022-10-04T10:35:20.615Z,1.95
2022-10-04T10:37:50.736Z,2.28
2022-10-04T10:40:29.758Z,1.80
2022-10-04T10:42:56.891Z,1.77
2022-10-04T10:45:45.668Z,2.10
2022-10-04T10:48:25.027Z,2.15
2022-10-04T10:51:10.839Z,1.70
2022-10-04T10:53:57.142Z,1.95
2022-10-04T10:56:29.314Z,2.00
2022-10-04T10:59:15.870Z,2.10
2022-10-04T11:02:04.895Z,2.25
2022-10-04T11:04:32.121Z,2.33
2022-10-04T11:07:18.420Z,3.05
2022-10-04T11:09:48.595Z,2.92
2022-10-04T11:12:15.683Z,2.20
2022-10-04T11:14:51.983Z,2.33
2022-10-04T11:17:27.474Z,2.38
2022-10-04T11:20:02.846Z,2.20
2022-10-04T11:22:38.325Z,2.10
2022-10-04T11:25:08.984Z,2.20
2022-10-04T11:27:56.677Z,2.35
2022-10-04T11:30:30.836Z,2.00
2022-10-04T11:32:59.529Z,2.05
2022-10-04T11:35:44.229Z,2.08
2022-10-04T11:38:23.112Z,2.60
2022-10-04T11:41:07.234Z,2.53
2022-10-04T11:43:46.758Z,2.28
2022-10-04T11:46:20.046Z,2.00
2022-10-04T11:49:06.139Z,2.30
2022-10-04T11:51:52.135Z,2.90
2022-10-04T11:54:38.303Z,2.08
2022-10-04T11:57:18.112Z,2.75
2022-10-04T11:59:45.390Z,2.40
2022-10-04T12:02:32.270Z,2.30
2022-10-04T12:05:02.446Z,2.55
2022-10-04T12:07:38.979Z,2.10
2022-10-04T12:10:28.123Z,2.55
2022-10-04T12:13:01.513Z,2.47
2022-10-04T12:15:45.413Z,2.25
2022-10-04T12:18:15.605Z,1.80
2022-10-04T12:20:53.473Z,2.50
2022-10-04T12:23:30.940Z,2.17
2022-10-04T12:26:19.247Z,2.28
2022-10-04T12:28:58.611Z,2.05
2022-10-04T12:31:42.552Z,2.50
2022-10-04T12:34:18.767Z,1.92
2022-10-04T12:37:18.760Z,2.38
2022-10-04T12:39:58.214Z,1.92
2022-10-04T12:42:40.790Z,2.08
2022-10-04T12:45:10.650Z,2.50
2022-10-04T12:47:48.182Z,2.40
2022-10-04T12:50:22.223Z,2.30
2022-10-04T12:52:56.042Z,2.50
2022-10-04T12:55:38.438Z,2.00
2022-10-04T12:58:10.665Z,2.20
2022-10-04T13:00:42.155Z,2.42
2022-10-04T13:03:10.731Z,2.03
2022-10-04T13:05:49.396Z,2.20
2022-10-04T13:08:28.848Z,2.00
2022-10-04T13:10:59.133Z,2.22
2022-10-04T13:13:29.422Z,2.15
2022-10-04T13:19:15.671Z,2.20
2022-10-04T13:22:01.699Z,2.92
2022-10-04T13:24:56.320Z,2.03
2022-10-04T13:27:29.111Z,2.28
2022-10-04T13:30:02.355Z,2.05
2022-10-04T13:37:55.366Z,1.98
2022-10-04T13:39:01.873Z,1.90
2022-10-04T13:39:14.841Z,2.00
2022-10-04T13:41:50.759Z,1.98
2022-10-04T13:44:20.824Z,2.00
2022-10-04T13:46:58.986Z,2.00
2022-10-04T13:49:45.415Z,2.15
2022-10-04T13:52:37.746Z,1.98
2022-10-04T13:55:26.419Z,2.08
2022-10-04T13:57:59.410Z,2.10
2022-10-04T14:00:31.881Z,1.92
2022-10-04T14:03:02.348Z,1.88
2022-10-04T14:05:41.795Z,2.45
2022-10-04T14:08:12.020Z,1.98
2022-10-04T14:10:58.075Z,1.63
2022-10-04T14:13:44.340Z,1.77
2022-10-04T14:16:17.728Z,1.85
2022-10-04T14:19:03.875Z,2.03
2022-10-04T14:21:32.061Z,2.10
2022-10-04T14:24:05.924Z,2.05
2022-10-04T14:26:46.450Z,2.00
2022-10-04T14:29:33.175Z,1.70
2022-10-04T14:32:09.468Z,1.77
2022-10-04T14:34:45.898Z,1.52
2022-10-04T14:37:19.172Z,1.73
2022-10-04T14:39:59.351Z,1.90
2022-10-04T14:42:38.780Z,1.88
2022-10-04T14:45:43.305Z,1.90
2022-10-04T14:48:24.456Z,2.20
2022-10-04T14:51:12.863Z,1.60
2022-10-04T14:53:59.327Z,1.70
2022-10-04T14:56:29.567Z,1.70
2022-10-04T14:59:19.789Z,1.60
2022-10-04T15:02:02.500Z,1.65
2022-10-04T15:04:39.686Z,1.73
2022-10-04T15:07:27.067Z,1.60
2022-10-04T15:10:21.304Z,1.50
2022-10-04T15:13:15.545Z,1.88
2022-10-04T15:16:01.618Z,1.70
2022-10-04T15:18:37.761Z,1.63
2022-10-04T15:21:23.677Z,1.63
2022-10-04T15:23:56.303Z,1.65
2022-10-04T15:26:23.379Z,1.40
2022-10-04T15:28:50.478Z,1.92
2022-10-04T15:31:23.676Z,1.70
2022-10-04T15:33:57.066Z,1.85
2022-10-04T15:36:43.276Z,1.95
2022-10-04T15:39:22.975Z,1.95
2022-10-04T15:41:53.231Z,2.03
2022-10-04T15:44:38.875Z,1.67
2022-10-04T15:47:21.635Z,2.25
2022-10-04T15:49:50.187Z,1.90
2022-10-04T15:52:36.138Z,2.08
2022-10-04T15:55:23.033Z,2.25
2022-10-04T15:57:51.254Z,2.70
2022-10-04T16:00:23.481Z,1.90
2022-10-04T16:02:50.639Z,2.30
2022-10-04T16:05:24.141Z,2.22
2022-10-04T16:07:54.524Z,2.00
2022-10-04T16:10:40.832Z,1.70
2022-10-04T16:13:11.082Z,2.38
2022-10-04T16:15:39.771Z,1.73
2022-10-04T16:18:15.459Z,2.20
2022-10-04T16:21:12.824Z,2.20
2022-10-04T16:23:42.987Z,2.55
2022-10-04T16:26:10.886Z,2.20
2022-10-04T16:28:51.653Z,2.10
2022-10-04T16:31:26.707Z,2.15
2022-10-04T16:34:09.076Z,2.63
2022-10-04T16:36:49.561Z,2.10
2022-10-04T16:40:03.435Z,2.30
2022-10-04T16:42:46.283Z,2.20
2022-10-04T16:45:33.099Z,2.60
2022-10-04T16:48:21.133Z,2.70
2022-10-04T16:50:54.523Z,2.50
2022-10-04T16:53:27.721Z,2.88
2022-10-04T16:56:01.054Z,2.88
2022-10-04T16:58:28.135Z,2.60
2022-10-04T17:01:14.128Z,2.75
2022-10-04T17:03:49.060Z,3.50
2022-10-04T17:06:16.620Z,2.97
2022-10-04T17:08:49.784Z,3.10
2022-10-04T17:11:36.412Z,3.05
2022-10-04T17:14:22.827Z,2.90
2022-10-04T17:16:57.518Z,3.17
2022-10-04T17:19:32.624Z,3.70
2022-10-04T17:22:07.174Z,3.40
2022-10-04T17:24:43.315Z,3.90
2022-10-04T17:27:19.612Z,3.55
2022-10-04T17:29:50.042Z,4.30
2022-10-04T17:32:41.504Z,3.70
2022-10-04T17:35:23.976Z,3.95
2022-10-04T17:37:54.111Z,4.65
2022-10-04T17:40:28.663Z,4.47
2022-10-04T17:43:00.161Z,4.38
2022-10-04T17:45:48.426Z,3.65
2022-10-04T17:48:35.738Z,3.95
2022-10-04T17:51:48.166Z,4.68
2022-10-04T17:54:42.868Z,5.75
2022-10-04T17:57:14.424Z,5.60
2022-10-04T17:59:45.529Z,4.75
2022-10-04T18:02:18.105Z,5.78
2022-10-04T18:04:54.667Z,6.10
2022-10-04T18:07:25.861Z,4.85
2022-10-04T18:09:54.837Z,4.95
2022-10-04T18:12:29.303Z,4.72
2022-10-04T18:15:00.990Z,4.57
2022-10-04T18:17:36.923Z,5.13
2022-10-04T18:20:23.634Z,5.00
2022-10-04T18:23:00.025Z,5.28
2022-10-04T18:25:29.703Z,4.40
2022-10-04T18:28:10.224Z,4.85
2022-10-04T18:33:26.876Z,4.55
2022-10-04T18:36:25.780Z,3.80
2022-10-04T18:39:09.894Z,4.75
2022-10-04T18:45:00.025Z,4.03
2022-10-04T18:47:44.070Z,4.00
2022-10-04T18:50:28.490Z,4.50
2022-10-04T18:52:58.534Z,3.70
2022-10-04T18:55:39.679Z,4.68
2022-10-04T18:58:44.856Z,3.80
2022-10-04T19:01:54.498Z,5.13
2022-10-04T19:04:34.792Z,5.82
2022-10-04T19:07:11.486Z,5.40
2022-10-04T19:09:51.904Z,5.15
2022-10-04T19:12:23.600Z,4.70
2022-10-04T19:14:50.742Z,4.43
2022-10-04T19:17:32.839Z,4.93
2022-10-04T19:20:07.136Z,4.95
2022-10-04T19:22:37.708Z,5.45
2022-10-04T19:25:10.739Z,4.60
2022-10-04T19:28:04.223Z,5.43
2022-10-04T19:30:48.246Z,4.88
2022-10-04T19:33:20.454Z,5.32
2022-10-04T19:35:54.031Z,5.15
2022-10-04T19:38:21.109Z,5.32
2022-10-04T19:40:54.049Z,5.47
2022-10-04T19:43:43.350Z,5.45
2022-10-04T19:46:11.709Z,6.07
2022-10-04T19:48:49.631Z,6.07
2022-10-04T19:51:20.647Z,5.72
2022-10-04T19:53:49.305Z,5.25
2022-10-04T19:56:16.704Z,5.55
2022-10-04T19:58:45.204Z,5.95
2022-10-04T20:01:16.659Z,6.80
2022-10-04T20:03:44.063Z,6.40
2022-10-04T20:06:11.646Z,5.85
2022-10-04T20:09:07.710Z,6.65
2022-10-04T20:11:40.707Z,5.82
2022-10-04T20:14:07.886Z,6.28
2022-10-04T20:16:50.784Z,6.15
2022-10-04T20:19:30.152Z,6.32
2022-10-04T20:22:18.594Z,6.88
2022-10-04T20:24:45.720Z,6.22
2022-10-04T20:27:29.520Z,6.30
2022-10-04T20:30:03.897Z,6.38
2022-10-04T20:32:34.094Z,6.32
2022-10-04T20:35:02.074Z,6.30
2022-10-04T20:37:44.487Z,5.85
2022-10-04T20:40:26.856Z,5.82
2022-10-04T20:43:12.542Z,5.68
2022-10-04T20:45:46.838Z,5.70
2022-10-04T20:48:27.135Z,5.90
2022-10-04T20:50:54.719Z,5.63
2022-10-04T20:53:21.808Z,5.60
2022-10-04T20:55:49.942Z,5.25
2022-10-04T20:58:23.602Z,5.57
2022-10-04T21:00:54.761Z,5.70
2022-10-04T21:03:22.347Z,5.95
2022-10-04T21:06:06.283Z,6.35
2022-10-04T21:08:33.822Z,5.50
2022-10-04T21:11:07.258Z,5.10
2022-10-04T21:13:41.985Z,5.53
2022-10-04T21:16:09.263Z,5.60
2022-10-04T21:18:36.460Z,5.35
2022-10-04T21:21:03.681Z,5.78
2022-10-04T21:23:33.445Z,5.60
2022-10-04T21:26:20.050Z,5.10
2022-10-04T21:28:47.603Z,5.53
2022-10-04T21:31:14.868Z,6.22
2022-10-04T21:33:42.066Z,5.68
2022-10-04T21:36:09.218Z,5.50
2022-10-04T21:38:36.330Z,5.20
2022-10-04T21:41:03.690Z,5.50
2022-10-04T21:43:31.049Z,5.00
2022-10-04T21:45:58.454Z,5.60
2022-10-04T21:48:25.795Z,5.43
2022-10-04T21:50:53.819Z,5.50
2022-10-04T21:53:21.447Z,5.53
2022-10-04T21:55:48.575Z,5.43
2022-10-04T21:58:15.736Z,6.03
2022-10-04T22:00:43.007Z,5.05
2022-10-04T22:03:10.263Z,5.70
2022-10-04T22:05:37.424Z,5.72
2022-10-04T22:08:04.549Z,5.18
2022-10-04T22:10:31.837Z,5.32
2022-10-04T22:12:58.953Z,5.57
2022-10-04T22:15:26.614Z,5.03
2022-10-04T22:17:53.770Z,5.40
2022-10-04T22:20:21.118Z,5.60
2022-10-04T22:22:48.506Z,5.20
2022-10-04T22:25:16.770Z,5.60
2022-10-04T22:27:43.927Z,4.75
2022-10-04T22:30:20.390Z,5.18
2022-10-04T22:32:47.556Z,5.25
2022-10-04T22:35:16.056Z,5.63
2022-10-04T22:37:43.491Z,5.63
2022-10-04T22:40:15.037Z,5.68
2022-10-04T22:42:42.289Z,5.47
2022-10-04T22:45:16.410Z,4.97
2022-10-04T22:47:43.562Z,5.30
2022-10-04T22:50:19.583Z,5.53
2022-10-04T22:52:46.778Z,5.47
2022-10-04T22:55:17.861Z,5.07
2022-10-04T22:57:45.106Z,5.43
2022-10-04T23:00:13.415Z,5.10
2022-10-04T23:02:40.573Z,5.30
2022-10-04T23:05:20.698Z,6.40
2022-10-04T23:07:48.491Z,5.30
2022-10-04T23:10:18.286Z,5.55
2022-10-04T23:12:52.066Z,5.10
2022-10-04T23:15:20.295Z,5.43
2022-10-04T23:17:52.942Z,4.90
2022-10-04T23:20:20.570Z,4.70
2022-10-04T23:22:48.990Z,5.13
2022-10-04T23:25:18.091Z,4.63
2022-10-04T23:27:46.016Z,4.85
2022-10-04T23:30:17.329Z,4.90
2022-10-04T23:32:45.385Z,4.43
2022-10-04T23:35:16.235Z,4.65
2022-10-04T23:37:43.335Z,4.18
2022-10-04T23:40:10.883Z,4.75
2022-10-04T23:42:38.071Z,4.78
2022-10-04T23:45:12.275Z,4.60
2022-10-04T23:47:39.406Z,4.83
2022-10-04T23:50:25.117Z,4.53
2022-10-04T23:52:52.987Z,5.35
2022-10-04T23:55:21.308Z,4.70
2022-10-04T23:57:48.850Z,4.40
